Time;durP1;ratioP1;P1;durP2;ratioP2;P2;SDS_P1;SDS_P2;PMS_P1;PMS_P2;Temp;Humidity;BMP_temperature;BMP_pressure;BME280_temperature;BME280_humidity;BME280_pressure;Samples;Min_cycle;Max_cycle;Signal;HPM_P1;HPM_P2
2023/11/01 00:01:36;;;;;;;3.23;1.07;;;14.60;99.90;;;;;;4966482;28;20217;-77
2023/11/01 00:04:02;;;;;;;2.90;0.90;;;14.70;99.90;;;;;;4977068;28;20542;-77
2023/11/01 00:06:28;;;;;;;3.00;1.00;;;14.70;99.90;;;;;;4972680;28;20591;-76
2023/11/01 00:08:55;;;;;;;3.47;1.20;;;14.70;99.90;;;;;;4972024;28;20238;-77
2023/11/01 00:11:21;;;;;;;3.77;1.17;;;14.70;99.90;;;;;;4972554;28;20274;-77
2023/11/01 00:13:46;;;;;;;2.37;0.80;;;14.80;99.90;;;;;;4985825;28;21423;-77
2023/11/01 00:16:12;;;;;;;4.43;1.00;;;14.80;99.90;;;;;;4972381;28;20176;-77
2023/11/01 00:18:38;;;;;;;4.03;0.90;;;14.80;99.90;;;;;;4972243;28;20202;-78
2023/11/01 00:21:04;;;;;;;2.10;0.80;;;14.80;99.90;;;;;;4972242;28;20192;-77
2023/11/01 00:23:29;;;;;;;2.70;0.97;;;14.80;99.90;;;;;;4981615;28;20171;-77
2023/11/01 00:25:56;;;;;;;2.80;1.23;;;14.80;99.90;;;;;;4976355;28;20587;-77
2023/11/01 00:28:21;;;;;;;5.80;0.93;;;14.80;99.90;;;;;;4971730;28;20534;-77
2023/11/01 00:30:47;;;;;;;2.93;1.27;;;14.80;99.90;;;;;;4975637;28;20632;-76
2023/11/01 00:33:13;;;;;;;2.40;1.30;;;14.80;99.90;;;;;;4987380;28;20196;-75
2023/11/01 00:35:39;;;;;;;4.83;0.90;;;14.80;99.90;;;;;;4976676;28;20175;-76
2023/11/01 00:38:07;;;;;;;3.07;0.80;;;14.80;99.90;;;;;;4971427;28;20239;-75
2023/11/01 00:40:33;;;;;;;2.37;1.20;;;14.80;99.90;;;;;;4971252;28;20187;-76
2023/11/01 00:42:59;;;;;;;5.20;0.90;;;14.80;99.90;;;;;;4962833;28;20634;-75
2023/11/01 00:45:25;;;;;;;6.07;1.50;;;14.80;99.90;;;;;;4988640;28;20591;-76
2023/11/01 00:47:51;;;;;;;4.00;1.30;;;14.80;99.90;;;;;;4968476;28;20210;-76
2023/11/01 00:50:16;;;;;;;3.67;0.90;;;14.70;99.90;;;;;;4986443;28;20631;-76
2023/11/01 00:52:44;;;;;;;5.63;1.23;;;14.70;99.90;;;;;;4970591;28;20195;-77
2023/11/01 00:55:09;;;;;;;3.30;1.10;;;14.70;99.90;;;;;;4971723;28;20230;-77
2023/11/01 00:57:35;;;;;;;1.93;0.83;;;14.60;99.90;;;;;;4973283;28;20582;-76
2023/11/01 01:00:01;;;;;;;3.20;1.00;;;14.60;99.90;;;;;;4975262;28;20254;-76
2023/11/01 01:02:27;;;;;;;2.57;0.90;;;14.50;99.90;;;;;;4971797;28;20579;-76
2023/11/01 01:04:53;;;;;;;2.73;1.10;;;14.50;99.90;;;;;;4977418;28;20681;-77
2023/11/01 01:07:19;;;;;;;3.40;1.00;;;14.40;99.90;;;;;;4970010;28;20182;-77
2023/11/01 01:09:45;;;;;;;3.37;1.00;;;14.40;99.90;;;;;;4990254;28;20214;-76
2023/11/01 01:12:10;;;;;;;2.17;0.80;;;14.30;99.90;;;;;;5005828;28;20618;-76
2023/11/01 01:14:36;;;;;;;3.70;1.00;;;14.30;99.90;;;;;;4983985;28;20176;-77
2023/11/01 01:17:02;;;;;;;6.30;1.10;;;14.30;99.90;;;;;;4990210;28;20175;-76
2023/11/01 01:19:28;;;;;;;2.80;1.00;;;14.20;99.90;;;;;;4991005;28;20593;-77
2023/11/01 01:21:54;;;;;;;3.50;1.30;;;14.20;99.90;;;;;;4984285;28;20626;-76
2023/11/01 01:24:20;;;;;;;5.37;1.13;;;14.10;99.90;;;;;;4988750;28;20187;-76
2023/11/01 01:26:46;;;;;;;3.10;1.43;;;14.00;99.90;;;;;;4986101;28;20930;-77
2023/11/01 01:29:12;;;;;;;4.37;1.63;;;14.00;99.90;;;;;;4986012;28;21075;-76
2023/11/01 01:31:37;;;;;;;4.30;2.27;;;14.00;99.90;;;;;;4990801;28;20657;-77
2023/11/01 01:34:03;;;;;;;6.10;1.90;;;14.00;99.90;;;;;;4987391;28;20681;-76
2023/11/01 01:36:29;;;;;;;4.63;1.57;;;13.90;99.90;;;;;;4990935;28;20586;-77
2023/11/01 01:38:54;;;;;;;4.10;1.07;;;13.90;99.90;;;;;;4983823;28;20267;-77
2023/11/01 01:41:20;;;;;;;4.87;1.90;;;13.90;99.90;;;;;;4986873;28;20723;-76
2023/11/01 01:43:46;;;;;;;3.50;1.67;;;13.90;99.90;;;;;;4985001;28;20179;-76
2023/11/01 01:46:14;;;;;;;6.20;1.17;;;13.90;99.90;;;;;;4981777;28;20386;-76
2023/11/01 01:48:42;;;;;;;4.17;1.63;;;13.80;99.90;;;;;;4991686;28;20625;-77
2023/11/01 01:51:10;;;;;;;2.80;1.80;;;13.80;99.90;;;;;;4984078;28;20606;-76
2023/11/01 01:53:39;;;;;;;4.50;1.80;;;13.80;99.90;;;;;;4989705;28;20582;-76
2023/11/01 01:56:06;;;;;;;6.23;1.70;;;13.80;99.90;;;;;;4986814;28;20589;-77
2023/11/01 01:58:33;;;;;;;7.50;1.90;;;13.80;99.90;;;;;;4990118;28;20635;-76
2023/11/01 02:00:59;;;;;;;2.77;1.13;;;13.80;99.90;;;;;;4993255;28;20634;-76
2023/11/01 02:03:25;;;;;;;3.10;1.70;;;13.80;99.90;;;;;;4991409;28;20594;-76
2023/11/01 02:05:55;;;;;;;4.80;1.37;;;13.80;99.90;;;;;;4993098;28;20680;-76
2023/11/01 02:08:21;;;;;;;3.10;1.50;;;13.70;99.90;;;;;;4967992;28;20615;-76
2023/11/01 02:10:47;;;;;;;4.87;1.47;;;13.70;99.90;;;;;;4982388;28;20682;-77
2023/11/01 02:13:15;;;;;;;4.57;1.93;;;13.70;99.90;;;;;;4973165;28;20602;-76
2023/11/01 02:15:43;;;;;;;7.80;2.10;;;13.70;99.90;;;;;;4960932;28;20617;-76
2023/11/01 02:18:09;;;;;;;4.90;2.23;;;13.70;99.90;;;;;;4976317;28;21140;-77
2023/11/01 02:20:37;;;;;;;2.50;1.50;;;13.70;99.90;;;;;;4992338;28;20590;-77
2023/11/01 02:23:13;;;;;;;3.60;1.80;;;13.70;99.90;;;;;;4976432;28;20625;-77
2023/11/01 02:25:40;;;;;;;3.40;1.73;;;13.70;99.90;;;;;;4994425;28;20597;-76
2023/11/01 02:28:08;;;;;;;3.70;1.60;;;13.70;99.90;;;;;;4995606;28;20957;-76
2023/11/01 02:30:33;;;;;;;6.17;1.37;;;13.70;99.90;;;;;;4990359;28;20906;-76
2023/11/01 02:33:00;;;;;;;3.53;1.60;;;13.70;99.90;;;;;;4986611;28;20610;-76
2023/11/01 02:35:26;;;;;;;2.87;1.40;;;13.70;99.90;;;;;;4992461;28;20596;-76
2023/11/01 02:37:52;;;;;;;3.10;1.30;;;13.70;99.90;;;;;;5008876;28;20570;-76
2023/11/01 02:40:18;;;;;;;5.60;1.83;;;13.70;99.90;;;;;;4991991;28;20218;-76
2023/11/01 02:42:48;;;;;;;3.43;1.87;;;13.70;99.90;;;;;;4988018;28;20695;-76
2023/11/01 02:45:15;;;;;;;3.10;1.47;;;13.70;99.90;;;;;;4992315;28;20179;-76
2023/11/01 02:47:43;;;;;;;6.07;1.50;;;13.70;99.90;;;;;;4975892;28;20594;-76
2023/11/01 02:50:10;;;;;;;3.00;1.20;;;13.70;99.90;;;;;;4992193;28;20633;-77
2023/11/01 02:52:40;;;;;;;6.13;1.70;;;13.80;99.90;;;;;;4968426;28;20676;-77
2023/11/01 02:55:10;;;;;;;3.17;1.20;;;13.80;99.90;;;;;;5008497;28;20597;-76
2023/11/01 02:57:37;;;;;;;4.70;1.50;;;13.80;99.90;;;;;;4991893;28;20586;-77
2023/11/01 03:00:06;;;;;;;4.37;1.30;;;13.80;99.90;;;;;;4991963;28;20601;-76
2023/11/01 03:02:36;;;;;;;9.43;2.17;;;13.80;99.90;;;;;;4993688;28;20673;-77
2023/11/01 03:05:03;;;;;;;5.40;1.50;;;13.80;99.90;;;;;;4994334;28;21163;-76
2023/11/01 03:07:29;;;;;;;3.13;0.87;;;13.80;99.90;;;;;;4991821;28;20221;-76
2023/11/01 03:09:54;;;;;;;3.70;1.50;;;13.70;99.90;;;;;;4975501;28;20622;-76
2023/11/01 03:12:20;;;;;;;2.20;1.00;;;13.70;99.90;;;;;;4992849;28;20613;-76
2023/11/01 03:14:46;;;;;;;4.70;1.33;;;13.60;99.90;;;;;;4975606;28;20171;-76
2023/11/01 03:17:12;;;;;;;2.33;1.10;;;13.60;99.90;;;;;;4975634;28;20175;-76
2023/11/01 03:19:38;;;;;;;2.53;1.23;;;13.50;99.90;;;;;;4975319;28;20194;-76
2023/11/01 03:22:03;;;;;;;2.07;1.07;;;13.50;99.90;;;;;;5007831;28;20618;-76
2023/11/01 03:24:33;;;;;;;1.93;0.83;;;13.40;99.90;;;;;;4991426;28;20378;-76
2023/11/01 03:27:01;;;;;;;6.03;1.33;;;13.40;99.90;;;;;;5057590;23;20185;-74
2023/11/01 03:29:37;;;;;;;3.60;1.40;;;13.30;99.90;;;;;;4968782;28;20643;-75
2023/11/01 03:32:35;;;;;;;2.70;0.90;;;13.30;99.90;;;;;;4964818;28;20607;-75
2023/11/01 03:35:18;;;;;;;4.67;0.90;;;13.20;99.90;;;;;;4967383;28;20594;-75
2023/11/01 03:37:46;;;;;;;5.30;0.90;;;13.20;99.90;;;;;;4972590;28;20600;-76
2023/11/01 03:40:19;;;;;;;2.10;0.80;;;13.20;99.90;;;;;;4964885;28;20656;-76
2023/11/01 03:42:56;;;;;;;2.07;0.77;;;13.10;99.90;;;;;;4971619;28;20591;-76
2023/11/01 03:45:28;;;;;;;2.90;1.00;;;13.10;99.90;;;;;;4972577;28;20592;-76
2023/11/01 03:47:54;;;;;;;2.17;0.73;;;13.10;99.90;;;;;;4971337;28;20725;-76
2023/11/01 03:50:19;;;;;;;1.87;1.00;;;13.10;99.90;;;;;;4963865;28;20208;-76
2023/11/01 03:52:47;;;;;;;5.17;1.20;;;13.10;99.90;;;;;;4939660;28;20630;-76
2023/11/01 03:55:13;;;;;;;2.47;0.80;;;13.10;99.90;;;;;;4971311;28;20204;-74
2023/11/01 03:57:39;;;;;;;2.90;0.80;;;13.10;99.90;;;;;;4967935;28;20662;-75
2023/11/01 04:00:05;;;;;;;5.00;0.90;;;13.10;99.90;;;;;;4972701;28;20274;-74
2023/11/01 04:02:31;;;;;;;3.00;0.70;;;13.10;99.90;;;;;;4954561;28;20222;-75
2023/11/01 04:04:56;;;;;;;3.67;0.90;;;13.10;99.90;;;;;;4965685;28;20928;-76
2023/11/01 04:07:22;;;;;;;1.90;0.80;;;13.10;99.90;;;;;;4966070;28;20706;-75
2023/11/01 04:09:48;;;;;;;2.43;1.13;;;13.00;99.90;;;;;;4971132;28;20231;-75
2023/11/01 04:12:13;;;;;;;2.73;0.80;;;13.00;99.90;;;;;;4964898;28;20189;-75
2023/11/01 04:14:39;;;;;;;3.30;0.70;;;13.00;99.90;;;;;;4953411;28;20199;-75
2023/11/01 04:17:05;;;;;;;2.43;0.70;;;13.00;99.90;;;;;;4955599;28;20200;-74
2023/11/01 04:19:31;;;;;;;2.27;0.83;;;13.10;99.90;;;;;;4970815;28;20210;-75
2023/11/01 04:21:57;;;;;;;3.50;0.80;;;13.10;99.90;;;;;;4971736;28;20590;-75
2023/11/01 04:24:23;;;;;;;2.77;0.87;;;13.10;99.90;;;;;;4970888;28;20180;-75
2023/11/01 04:26:52;;;;;;;2.10;0.90;;;13.10;99.90;;;;;;4959321;28;20181;-74
2023/11/01 04:29:18;;;;;;;3.40;0.90;;;13.20;99.90;;;;;;4958406;28;20693;-74
2023/11/01 04:31:43;;;;;;;2.03;1.00;;;13.20;99.90;;;;;;4970737;28;20979;-75
2023/11/01 04:34:11;;;;;;;3.10;1.33;;;13.20;99.90;;;;;;4970791;28;20183;-75
2023/11/01 04:36:37;;;;;;;4.50;1.27;;;13.20;99.90;;;;;;4970759;28;20191;-75
2023/11/01 04:39:03;;;;;;;2.70;1.37;;;13.20;99.90;;;;;;4969730;28;20984;-75
2023/11/01 04:41:29;;;;;;;4.90;1.00;;;13.20;99.90;;;;;;4970805;28;20586;-74
2023/11/01 04:43:54;;;;;;;7.17;1.30;;;13.20;99.90;;;;;;4972228;28;20587;-74
2023/11/01 04:46:20;;;;;;;3.63;1.37;;;13.20;99.90;;;;;;4971301;28;20183;-74
2023/11/01 04:48:46;;;;;;;3.00;0.90;;;13.30;99.90;;;;;;4968876;28;20208;-74
2023/11/01 04:51:11;;;;;;;3.63;1.00;;;13.30;99.90;;;;;;4966685;28;20184;-74
2023/11/01 04:53:37;;;;;;;4.90;1.10;;;13.30;99.90;;;;;;4971857;28;20194;-74
2023/11/01 04:56:05;;;;;;;2.33;1.00;;;13.30;99.90;;;;;;4963665;28;20179;-74
2023/11/01 04:58:33;;;;;;;3.20;1.00;;;13.30;99.90;;;;;;4971588;28;20199;-74
2023/11/01 05:00:59;;;;;;;2.33;1.00;;;13.20;99.90;;;;;;4971112;28;20609;-74
2023/11/01 05:03:25;;;;;;;2.07;1.47;;;13.20;99.90;;;;;;4972552;28;20583;-74
2023/11/01 05:05:51;;;;;;;2.83;0.90;;;13.20;99.90;;;;;;4970843;28;20179;-74
2023/11/01 05:08:16;;;;;;;2.90;1.17;;;13.20;99.90;;;;;;4970732;28;20195;-74
2023/11/01 05:10:42;;;;;;;1.60;1.00;;;13.20;99.90;;;;;;4969633;28;20989;-74
2023/11/01 05:13:08;;;;;;;3.37;1.17;;;13.20;99.90;;;;;;4971088;28;20222;-75
2023/11/01 05:15:34;;;;;;;1.47;0.83;;;13.30;99.90;;;;;;4970340;28;20182;-74
2023/11/01 05:18:00;;;;;;;2.13;0.90;;;13.30;99.90;;;;;;4971361;28;20195;-75
2023/11/01 05:20:26;;;;;;;2.53;0.80;;;13.30;99.90;;;;;;4970366;28;20922;-75
2023/11/01 05:22:52;;;;;;;1.70;0.80;;;13.30;99.90;;;;;;4950259;28;20675;-75
2023/11/01 05:25:18;;;;;;;1.90;0.90;;;13.30;99.90;;;;;;4965359;28;20180;-75
2023/11/01 05:27:46;;;;;;;2.73;0.90;;;13.30;99.90;;;;;;4968646;28;20223;-75
2023/11/01 05:30:14;;;;;;;4.43;1.00;;;13.30;99.90;;;;;;4970595;28;20647;-75
2023/11/01 05:32:47;;;;;;;1.90;0.83;;;13.30;99.90;;;;;;4970305;28;20587;-75
2023/11/01 05:35:14;;;;;;;1.60;0.80;;;13.30;99.90;;;;;;4963452;28;20595;-75
2023/11/01 05:37:40;;;;;;;2.10;0.80;;;13.30;99.90;;;;;;4971694;28;20618;-74
2023/11/01 05:40:13;;;;;;;3.13;0.90;;;13.30;99.90;;;;;;4973801;28;20594;-74
2023/11/01 05:42:46;;;;;;;2.13;0.90;;;13.30;99.90;;;;;;4973993;28;20590;-74
2023/11/01 05:45:16;;;;;;;3.27;0.80;;;13.30;99.90;;;;;;4973866;28;20591;-74
2023/11/01 05:47:49;;;;;;;4.33;1.00;;;13.30;99.90;;;;;;4965453;28;20633;-75
2023/11/01 05:50:17;;;;;;;2.17;0.90;;;13.30;99.90;;;;;;4957517;28;21192;-75
2023/11/01 05:52:43;;;;;;;2.73;1.10;;;13.30;99.90;;;;;;4973655;28;20209;-74
2023/11/01 05:55:09;;;;;;;2.77;1.23;;;13.40;99.90;;;;;;4961951;28;20592;-74
2023/11/01 05:57:38;;;;;;;1.60;0.80;;;13.40;99.90;;;;;;4961266;28;20623;-74
2023/11/01 06:00:08;;;;;;;6.00;1.00;;;13.40;99.90;;;;;;4968104;28;20638;-74
2023/11/01 06:02:36;;;;;;;2.87;0.90;;;13.40;99.90;;;;;;4974208;28;20598;-74
2023/11/01 06:05:03;;;;;;;2.70;0.90;;;13.40;99.90;;;;;;4973285;28;20888;-73
2023/11/01 06:07:29;;;;;;;2.43;0.93;;;13.50;99.90;;;;;;4968898;28;20626;-74
2023/11/01 06:09:55;;;;;;;2.43;0.90;;;13.50;99.90;;;;;;4960117;28;20630;-74
2023/11/01 06:12:21;;;;;;;1.90;0.80;;;13.40;99.90;;;;;;4973193;28;20637;-74
2023/11/01 06:14:47;;;;;;;2.43;0.90;;;13.40;99.90;;;;;;4974349;28;20186;-74
2023/11/01 06:17:13;;;;;;;3.07;0.90;;;13.40;99.90;;;;;;4968943;28;20203;-74
2023/11/01 06:19:38;;;;;;;4.43;1.47;;;13.40;99.90;;;;;;4967437;28;20971;-74
2023/11/01 06:22:06;;;;;;;5.23;1.00;;;13.40;99.90;;;;;;4969835;28;20188;-74
2023/11/01 06:24:35;;;;;;;2.63;0.90;;;13.40;99.90;;;;;;4957018;28;20595;-75
2023/11/01 06:27:02;;;;;;;2.43;0.90;;;13.40;99.90;;;;;;4972797;28;20645;-75
2023/11/01 06:29:29;;;;;;;4.23;1.10;;;13.40;99.90;;;;;;4956759;28;20634;-75
2023/11/01 06:31:58;;;;;;;3.80;1.30;;;13.40;99.90;;;;;;4942371;28;20591;-76
2023/11/01 06:34:24;;;;;;;3.50;1.10;;;13.40;99.90;;;;;;4972926;28;21330;-74
2023/11/01 06:36:53;;;;;;;2.00;1.10;;;13.40;99.90;;;;;;4971465;28;20598;-75
2023/11/01 06:39:26;;;;;;;1.90;0.90;;;13.40;99.90;;;;;;4953571;28;20665;-75
2023/11/01 06:41:52;;;;;;;1.73;0.90;;;13.30;99.90;;;;;;4965715;28;20599;-75
2023/11/01 06:44:20;;;;;;;4.63;0.80;;;13.40;99.90;;;;;;4960928;28;20271;-74
2023/11/01 06:46:48;;;;;;;4.23;1.17;;;13.40;99.90;;;;;;4971294;28;20678;-74
2023/11/01 06:49:15;;;;;;;3.00;1.20;;;13.40;99.90;;;;;;4967958;28;20717;-74
2023/11/01 06:51:42;;;;;;;2.47;0.90;;;13.40;99.90;;;;;;4964336;28;20646;-74
2023/11/01 06:54:07;;;;;;;3.10;1.23;;;13.40;99.90;;;;;;4974018;28;20690;-75
2023/11/01 06:56:33;;;;;;;2.10;0.90;;;13.50;99.90;;;;;;4940284;29;20682;-75
2023/11/01 06:58:59;;;;;;;1.70;0.70;;;13.50;99.90;;;;;;4954310;28;20206;-76
2023/11/01 07:01:27;;;;;;;3.47;1.10;;;13.50;99.90;;;;;;4958658;28;20207;-74
2023/11/01 07:03:52;;;;;;;2.43;0.90;;;13.50;99.90;;;;;;4957597;28;20180;-75
2023/11/01 07:06:18;;;;;;;2.40;0.90;;;13.60;99.90;;;;;;4952882;28;20585;-75
2023/11/01 07:08:44;;;;;;;2.17;0.80;;;13.60;99.90;;;;;;4952653;29;20651;-76
2023/11/01 07:11:12;;;;;;;2.37;0.90;;;13.70;99.90;;;;;;4952824;29;20180;-75
2023/11/01 07:13:38;;;;;;;3.20;0.90;;;13.70;99.90;;;;;;4954140;28;20188;-75
2023/11/01 07:16:07;;;;;;;3.43;1.20;;;13.70;99.90;;;;;;4937390;29;20659;-74
2023/11/01 07:18:51;;;;;;;2.93;0.90;;;13.80;99.90;;;;;;4968681;28;20623;-75
2023/11/01 07:21:19;;;;;;;2.63;0.90;;;13.80;99.90;;;;;;4956345;28;20678;-75
2023/11/01 07:23:45;;;;;;;9.80;1.40;;;13.80;99.90;;;;;;4968774;28;20696;-75
2023/11/01 07:26:11;;;;;;;2.27;0.90;;;13.80;99.90;;;;;;4954035;28;20580;-75
2023/11/01 07:28:39;;;;;;;4.20;0.90;;;13.90;99.90;;;;;;4952096;29;20985;-76
2023/11/01 07:31:05;;;;;;;4.20;1.00;;;13.90;99.90;;;;;;4953821;29;20200;-75
2023/11/01 07:33:33;;;;;;;4.37;0.80;;;13.90;99.90;;;;;;4954007;28;20588;-76
2023/11/01 07:35:58;;;;;;;2.93;0.83;;;14.00;99.90;;;;;;4953690;29;21161;-76
2023/11/01 07:38:24;;;;;;;3.30;1.00;;;14.00;99.90;;;;;;4953343;28;20203;-76
2023/11/01 07:40:50;;;;;;;3.60;0.93;;;14.00;99.90;;;;;;4951767;29;20196;-76
2023/11/01 07:43:18;;;;;;;3.20;0.80;;;14.00;99.90;;;;;;4952549;28;21005;-76
2023/11/01 07:45:44;;;;;;;3.57;0.83;;;14.10;99.90;;;;;;4952258;29;20187;-76
2023/11/01 07:48:10;;;;;;;3.70;0.80;;;14.10;99.90;;;;;;4953260;29;20612;-75
2023/11/01 07:50:38;;;;;;;2.70;0.80;;;14.20;99.90;;;;;;4953257;29;20200;-75
2023/11/01 07:53:14;;;;;;;4.20;1.37;;;14.20;99.90;;;;;;4953718;28;20523;-76
2023/11/01 07:55:41;;;;;;;2.00;0.90;;;14.30;99.90;;;;;;4952970;28;21033;-77
2023/11/01 07:58:07;;;;;;;3.03;0.90;;;14.30;99.90;;;;;;4952822;29;20618;-76
2023/11/01 08:00:33;;;;;;;4.87;1.30;;;14.40;99.90;;;;;;4944400;29;20733;-77
2023/11/01 08:02:59;;;;;;;2.33;0.80;;;14.40;99.90;;;;;;4952094;29;21236;-76
2023/11/01 08:05:25;;;;;;;2.50;0.90;;;14.50;99.90;;;;;;4953429;29;20650;-77
2023/11/01 08:07:52;;;;;;;2.73;0.87;;;14.60;99.90;;;;;;4952656;28;20204;-75
2023/11/01 08:10:18;;;;;;;4.03;0.97;;;14.60;99.90;;;;;;4950872;29;20200;-76
2023/11/01 08:12:43;;;;;;;4.43;1.10;;;14.70;99.90;;;;;;4951948;28;20603;-75
2023/11/01 08:15:09;;;;;;;5.50;1.10;;;14.80;99.90;;;;;;4955667;28;20185;-75
2023/11/01 08:17:35;;;;;;;6.83;1.00;;;14.90;99.90;;;;;;4954122;28;20290;-75
2023/11/01 08:20:01;;;;;;;4.60;1.27;;;14.90;99.90;;;;;;4952934;28;20592;-76
2023/11/01 08:22:33;;;;;;;4.80;1.10;;;15.00;99.90;;;;;;4954986;28;20739;-76
2023/11/01 08:24:59;;;;;;;4.63;1.40;;;15.10;99.90;;;;;;4951643;29;20610;-76
2023/11/01 08:27:25;;;;;;;2.03;1.10;;;15.20;99.90;;;;;;4950338;29;20624;-76
2023/11/01 08:29:58;;;;;;;6.37;1.20;;;15.20;99.90;;;;;;4950001;28;20219;-76
2023/11/01 08:32:26;;;;;;;5.20;0.80;;;15.20;99.90;;;;;;4952677;29;20183;-76
2023/11/01 08:35:01;;;;;;;1.90;0.77;;;15.30;99.90;;;;;;4952314;28;20576;-76
2023/11/01 08:37:26;;;;;;;2.77;0.90;;;15.30;99.90;;;;;;4950680;29;20254;-76
2023/11/01 08:39:52;;;;;;;3.67;1.10;;;15.40;99.90;;;;;;4952599;29;21064;-75
2023/11/01 08:42:18;;;;;;;9.83;2.80;;;15.50;99.90;;;;;;4952686;29;20393;-75
2023/11/01 08:44:44;;;;;;;7.13;1.17;;;15.50;99.90;;;;;;4951060;29;20196;-76
2023/11/01 08:47:32;;;;;;;4.50;0.80;;;15.50;99.90;;;;;;4951383;29;20623;-76
2023/11/01 08:49:58;;;;;;;6.47;1.10;;;15.50;99.90;;;;;;4952402;28;20250;-75
2023/11/01 08:52:32;;;;;;;3.07;1.00;;;15.60;99.90;;;;;;4952717;29;20675;-76
2023/11/01 08:54:59;;;;;;;3.97;1.40;;;15.60;99.90;;;;;;4952599;28;20192;-76
2023/11/01 08:57:26;;;;;;;10.90;1.87;;;15.60;99.90;;;;;;4921551;28;20707;-75
2023/11/01 08:59:54;;;;;;;2.73;0.80;;;15.70;99.90;;;;;;4950678;29;20743;-75
2023/11/01 09:02:20;;;;;;;2.57;1.07;;;15.70;99.90;;;;;;4947653;28;20573;-76
2023/11/01 09:04:46;;;;;;;2.80;0.90;;;15.80;99.90;;;;;;4948778;29;21175;-76
2023/11/01 09:07:12;;;;;;;4.70;1.10;;;15.80;99.90;;;;;;4952538;28;20196;-76
2023/11/01 09:09:37;;;;;;;3.43;0.90;;;15.90;99.90;;;;;;4955139;29;20654;-76
2023/11/01 09:12:11;;;;;;;3.13;0.90;;;16.00;99.90;;;;;;4955219;29;20303;-76
2023/11/01 09:14:37;;;;;;;4.60;1.00;;;16.10;99.90;;;;;;4947858;28;20643;-76
2023/11/01 09:17:03;;;;;;;3.13;0.90;;;16.20;99.90;;;;;;4938433;29;20588;-76
2023/11/01 09:19:28;;;;;;;3.90;0.80;;;16.30;99.90;;;;;;4956160;28;20199;-76
2023/11/01 09:21:55;;;;;;;3.27;0.80;;;16.30;99.90;;;;;;4955038;29;20600;-76
2023/11/01 09:24:20;;;;;;;2.43;0.70;;;16.30;99.90;;;;;;4956389;29;20946;-76
2023/11/01 09:26:46;;;;;;;4.03;0.80;;;16.30;99.90;;;;;;4950390;28;20602;-75
2023/11/01 09:29:14;;;;;;;3.50;0.90;;;16.30;99.90;;;;;;4955597;29;20588;-74
2023/11/01 09:31:41;;;;;;;5.63;1.10;;;16.30;99.90;;;;;;4954870;29;20915;-75
2023/11/01 09:34:06;;;;;;;4.00;0.93;;;16.30;99.90;;;;;;4955749;29;20594;-75
2023/11/01 09:36:34;;;;;;;3.93;1.00;;;16.30;99.90;;;;;;4956077;28;20588;-76
2023/11/01 09:38:59;;;;;;;3.57;0.80;;;16.40;99.90;;;;;;4954159;28;20204;-75
2023/11/01 09:41:29;;;;;;;5.73;0.90;;;16.40;99.90;;;;;;4954259;29;20961;-76
2023/11/01 09:44:02;;;;;;;3.97;1.23;;;16.40;99.90;;;;;;4954509;29;20235;-76
2023/11/01 09:46:29;;;;;;;2.70;0.90;;;16.40;99.90;;;;;;4954781;29;20576;-76
2023/11/01 09:48:55;;;;;;;3.43;0.80;;;16.50;99.90;;;;;;4954049;28;21053;-76
2023/11/01 09:51:24;;;;;;;4.37;0.80;;;16.50;99.90;;;;;;4932225;29;20642;-76
2023/11/01 09:53:50;;;;;;;4.57;0.90;;;16.50;99.90;;;;;;4938509;29;20642;-76
2023/11/01 09:56:21;;;;;;;3.10;0.80;;;16.50;99.90;;;;;;4954220;29;20682;-76
2023/11/01 09:58:47;;;;;;;3.93;0.90;;;16.60;99.90;;;;;;4955218;29;20206;-76
2023/11/01 10:01:13;;;;;;;3.40;0.80;;;16.60;99.90;;;;;;4955203;29;20592;-76
2023/11/01 10:03:40;;;;;;;3.37;0.80;;;16.60;99.90;;;;;;4954551;28;20591;-76
2023/11/01 10:06:07;;;;;;;7.00;0.93;;;16.70;99.90;;;;;;4970416;28;21164;-78
2023/11/01 10:08:33;;;;;;;6.23;1.00;;;16.80;99.90;;;;;;4990259;22;20732;-77
2023/11/01 10:11:02;;;;;;;2.10;0.70;;;16.90;99.90;;;;;;4988423;28;20633;-76
2023/11/01 10:13:31;;;;;;;4.43;0.80;;;16.90;99.90;;;;;;4988012;28;20186;-77
2023/11/01 10:15:57;;;;;;;7.23;1.53;;;17.00;99.90;;;;;;4966543;28;20576;-77
2023/11/01 10:18:22;;;;;;;5.77;1.00;;;17.00;99.90;;;;;;4998800;28;20616;-77
2023/11/01 10:20:48;;;;;;;4.53;0.90;;;17.10;99.90;;;;;;4991153;28;20174;-77
2023/11/01 10:23:14;;;;;;;2.77;0.70;;;17.20;99.90;;;;;;4991479;28;20787;-76
2023/11/01 10:25:44;;;;;;;3.50;0.90;;;17.20;99.90;;;;;;4998229;28;20171;-77
2023/11/01 10:28:13;;;;;;;5.77;1.17;;;17.20;99.90;;;;;;4998049;28;20438;-76
2023/11/01 10:30:43;;;;;;;6.63;1.40;;;17.20;99.90;;;;;;4998307;28;21133;-76
2023/11/01 10:33:10;;;;;;;5.90;0.90;;;17.20;99.90;;;;;;4989936;28;20677;-76
2023/11/01 10:35:36;;;;;;;7.40;1.40;;;17.20;99.90;;;;;;4990419;28;20590;-77
2023/11/01 10:38:02;;;;;;;6.53;1.10;;;17.20;99.90;;;;;;4997298;28;20625;-77
2023/11/01 10:40:31;;;;;;;6.33;1.20;;;17.10;99.90;;;;;;4999330;28;20248;-77
2023/11/01 10:42:59;;;;;;;6.47;1.00;;;17.10;99.90;;;;;;4987285;28;20649;-77
2023/11/01 10:45:25;;;;;;;2.87;0.80;;;17.10;99.90;;;;;;4993935;28;20598;-77
2023/11/01 10:47:54;;;;;;;5.63;0.80;;;17.10;99.90;;;;;;4985318;28;20734;-76
2023/11/01 10:50:20;;;;;;;4.43;1.47;;;17.10;99.90;;;;;;4988467;28;20642;-76
2023/11/01 10:52:49;;;;;;;3.80;1.00;;;17.20;99.90;;;;;;4989145;28;20586;-76
2023/11/01 10:55:20;;;;;;;3.43;0.90;;;17.20;99.90;;;;;;4957313;28;20575;-76
2023/11/01 10:57:51;;;;;;;4.47;0.90;;;17.20;99.90;;;;;;4993886;28;21012;-77
2023/11/01 11:00:38;;;;;;;4.40;1.20;;;17.20;99.90;;;;;;4978361;28;20609;-78
2023/11/01 11:03:46;;;;;;;6.50;1.17;;;17.20;99.90;;;;;;4995205;28;20597;-77
2023/11/01 11:06:15;;;;;;;5.13;1.17;;;17.30;99.90;;;;;;4980274;28;21081;-77
2023/11/01 11:08:41;;;;;;;3.37;1.00;;;17.30;99.90;;;;;;4988161;28;20970;-78
2023/11/01 11:11:19;;;;;;;3.40;1.07;;;17.40;99.90;;;;;;4977262;28;20754;-78
2023/11/01 11:13:51;;;;;;;3.00;0.80;;;17.40;99.90;;;;;;4994580;28;20678;-76
2023/11/01 11:16:20;;;;;;;4.03;1.30;;;17.50;99.90;;;;;;4987689;28;21115;-77
2023/11/01 11:18:53;;;;;;;6.03;0.93;;;17.60;99.90;;;;;;4985722;28;20617;-77
2023/11/01 11:21:55;;;;;;;6.97;1.00;;;17.60;99.90;;;;;;4979400;28;20598;-77
2023/11/01 11:24:57;;;;;;;4.23;0.90;;;17.60;99.90;;;;;;4975180;28;21135;-77
2023/11/01 11:27:45;;;;;;;4.30;1.33;;;17.60;99.90;;;;;;4925261;29;20592;-77
2023/11/01 11:30:10;;;;;;;9.20;1.70;;;17.60;99.90;;;;;;4986178;28;20649;-77
2023/11/01 11:32:36;;;;;;;5.17;1.47;;;17.70;99.90;;;;;;4981994;28;20590;-77
2023/11/01 11:35:19;;;;;;;3.20;1.07;;;17.70;99.90;;;;;;4975521;28;20195;-77
2023/11/01 11:37:44;;;;;;;6.30;1.10;;;17.60;99.90;;;;;;4985228;28;20669;-77
2023/11/01 11:40:10;;;;;;;4.60;1.90;;;17.70;99.90;;;;;;4991790;28;20613;-77
2023/11/01 11:42:39;;;;;;;4.93;1.33;;;17.60;99.90;;;;;;4973623;28;20183;-77
2023/11/01 11:45:05;;;;;;;7.10;1.20;;;17.60;99.90;;;;;;4968617;28;21010;-77
2023/11/01 11:47:31;;;;;;;3.47;1.10;;;17.60;99.90;;;;;;4985964;28;20586;-77
2023/11/01 11:50:09;;;;;;;5.63;2.30;;;17.60;99.90;;;;;;4991492;28;21234;-76
2023/11/01 11:52:38;;;;;;;4.03;1.17;;;17.60;99.90;;;;;;4986590;28;20185;-76
2023/11/01 11:55:04;;;;;;;8.70;1.13;;;17.60;99.90;;;;;;4991406;28;20669;-76
2023/11/01 11:57:30;;;;;;;4.27;1.00;;;17.50;99.90;;;;;;4987645;28;20587;-78
2023/11/01 12:00:01;;;;;;;5.13;1.23;;;17.60;99.90;;;;;;4983316;28;20590;-78
2023/11/01 12:02:30;;;;;;;5.23;1.43;;;17.60;99.90;;;;;;4992228;28;20593;-77
2023/11/01 12:04:57;;;;;;;3.63;1.20;;;17.60;99.90;;;;;;4984274;28;20591;-76
2023/11/01 12:07:23;;;;;;;5.40;2.23;;;17.60;99.90;;;;;;4979200;28;20191;-73
2023/11/01 12:09:53;;;;;;;5.47;1.17;;;17.60;99.90;;;;;;4978324;28;20688;-73
2023/11/01 12:12:20;;;;;;;4.67;1.40;;;17.50;99.90;;;;;;4990714;28;20944;-76
2023/11/01 12:15:00;;;;;;;3.63;1.00;;;17.50;99.90;;;;;;4981380;28;20646;-76
2023/11/01 12:17:27;;;;;;;3.50;1.17;;;17.50;99.90;;;;;;5006403;28;21461;-77
2023/11/01 12:19:53;;;;;;;2.70;0.80;;;17.50;99.90;;;;;;4951522;28;20579;-76
2023/11/01 12:22:20;;;;;;;5.27;1.83;;;17.50;99.90;;;;;;4982540;28;20586;-77
2023/11/01 12:24:47;;;;;;;6.30;1.70;;;17.50;99.90;;;;;;4986123;28;20688;-77
2023/11/01 12:27:18;;;;;;;5.37;1.30;;;17.50;99.90;;;;;;4988053;28;20619;-77
2023/11/01 12:29:47;;;;;;;4.77;1.00;;;17.50;99.90;;;;;;4991012;28;21260;-77
2023/11/01 12:32:16;;;;;;;3.80;1.03;;;17.50;99.90;;;;;;4981518;28;20683;-77
2023/11/01 12:34:47;;;;;;;8.17;1.33;;;17.40;99.90;;;;;;4982965;28;20627;-77
2023/11/01 12:37:15;;;;;;;2.60;1.00;;;17.40;99.90;;;;;;4991878;28;21004;-77
2023/11/01 12:40:11;;;;;;;5.43;1.13;;;17.40;99.90;;;;;;4988857;28;20594;-77
2023/11/01 12:43:04;;;;;;;6.00;1.57;;;17.40;99.90;;;;;;4995957;28;20621;-77
2023/11/01 12:45:32;;;;;;;4.17;1.37;;;17.30;99.90;;;;;;4989467;28;20601;-78
2023/11/01 12:47:58;;;;;;;7.73;1.30;;;17.30;99.90;;;;;;4991055;28;20626;-77
2023/11/01 12:50:25;;;;;;;2.97;1.17;;;17.30;99.90;;;;;;4974053;28;20993;-77
2023/11/01 12:52:51;;;;;;;7.17;2.20;;;17.30;99.90;;;;;;4988361;28;20583;-78